Time;durP1;ratioP1;P1;durP2;ratioP2;P2;SDS_P1;SDS_P2;PMS_P1;PMS_P2;Temp;Humidity;BMP_temperature;BMP_pressure;BME280_temperature;BME280_humidity;BME280_pressure;Samples;Min_cycle;Max_cycle;Signal;HPM_P1;HPM_P2
2021/09/26 00:02:26;;;;;;;9.70;4.97;;;;;;;15.59;83.75;96906.28;1826601;78;21007;-82
2021/09/26 00:04:52;;;;;;;5.37;4.75;;;;;;;15.58;83.67;96908.06;1830693;77;20941;-82
2021/09/26 00:07:18;;;;;;;5.12;4.58;;;;;;;15.63;83.71;96910.64;1779039;79;20955;-82
2021/09/26 00:09:44;;;;;;;5.75;4.25;;;;;;;15.66;83.66;96911.55;1765780;80;21038;-82
2021/09/26 00:12:10;;;;;;;8.73;4.97;;;;;;;15.69;83.59;96917.69;1806086;78;20936;-82
2021/09/26 00:14:36;;;;;;;7.22;4.65;;;;;;;15.73;83.76;96912.34;1817321;78;20931;-82
2021/09/26 00:17:03;;;;;;;6.72;4.55;;;;;;;15.74;83.62;96906.90;1789846;78;21304;-82
2021/09/26 00:19:28;;;;;;;6.83;4.92;;;;;;;15.73;83.63;96909.22;1797301;78;20965;-82
2021/09/26 00:21:54;;;;;;;5.05;4.08;;;;;;;15.71;83.65;96903.88;1833807;78;21031;-82
2021/09/26 00:24:20;;;;;;;6.10;4.58;;;;;;;15.70;83.72;96899.65;1793347;78;21014;-81
2021/09/26 00:26:46;;;;;;;5.80;4.17;;;;;;;15.66;83.66;96902.38;1807539;78;21089;-82
2021/09/26 00:29:11;;;;;;;5.00;4.03;;;;;;;15.67;83.76;96900.06;1826666;78;20994;-82
2021/09/26 00:31:37;;;;;;;4.62;4.15;;;;;;;15.65;83.67;96900.27;1811150;78;20962;-81
2021/09/26 00:34:03;;;;;;;7.30;4.10;;;;;;;15.66;83.60;96898.45;1803919;78;20926;-82
2021/09/26 00:36:28;;;;;;;7.33;4.58;;;;;;;15.68;83.61;96900.36;1823391;78;21432;-82
2021/09/26 00:38:54;;;;;;;6.55;3.75;;;;;;;15.65;83.54;96896.33;1799098;78;20999;-82
2021/09/26 00:41:20;;;;;;;4.70;4.30;;;;;;;15.64;83.49;96896.03;1803549;78;21020;-82
2021/09/26 00:43:45;;;;;;;5.50;4.37;;;;;;;15.61;83.50;96902.95;1797471;78;21357;-82
2021/09/26 00:46:11;;;;;;;6.12;4.10;;;;;;;15.55;83.39;96890.64;1807871;78;21033;-82
2021/09/26 00:48:37;;;;;;;6.08;4.10;;;;;;;15.51;83.40;96888.12;1816057;78;21026;-82
2021/09/26 00:51:10;;;;;;;5.55;4.10;;;;;;;15.43;83.28;96884.37;1806596;78;20933;-82
2021/09/26 00:53:32;;;;;;;4.40;4.00;;;;;;;15.41;83.16;96882.46;1803399;78;20992;-82
2021/09/26 00:55:58;;;;;;;5.65;3.77;;;;;;;15.35;83.14;96882.77;1793815;78;21355;-81
2021/09/26 00:58:25;;;;;;;8.93;4.10;;;;;;;15.35;83.19;96885.38;1790336;78;21043;-82
2021/09/26 01:00:51;;;;;;;5.60;4.08;;;;;;;15.33;83.02;96887.40;1828464;78;21014;-82
2021/09/26 01:03:16;;;;;;;5.17;4.67;;;;;;;15.29;82.84;96889.61;1804532;78;21061;-82
2021/09/26 01:05:42;;;;;;;4.75;3.98;;;;;;;15.21;82.71;96889.78;1816573;78;20950;-81
2021/09/26 01:08:20;;;;;;;8.20;3.87;;;;;;;15.14;82.65;96890.28;1802129;78;20983;-82
2021/09/26 01:11:19;;;;;;;5.90;4.08;;;;;;;15.12;82.67;96900.63;1799263;78;21417;-82
2021/09/26 01:14:08;;;;;;;4.72;4.03;;;;;;;15.08;82.55;96896.80;1732558;78;20970;-82
2021/09/26 01:16:39;;;;;;;5.17;3.85;;;;;;;15.05;82.64;96903.73;1808718;78;20987;-82
2021/09/26 01:19:19;;;;;;;10.75;5.15;;;;;;;14.96;82.64;96906.52;1797017;78;21011;-82
2021/09/26 01:21:57;;;;;;;4.97;4.47;;;;;;;14.86;82.71;96903.47;1783938;78;20975;-81
2021/09/26 01:25:04;;;;;;;7.05;4.20;;;;;;;14.77;82.97;96896.78;1806322;78;20998;-82
2021/09/26 01:28:08;;;;;;;4.90;4.20;;;;;;;14.67;83.18;96899.78;1798478;78;21512;-81
2021/09/26 01:30:52;;;;;;;6.30;4.67;;;;;;;14.58;83.23;96897.51;1717041;82;21049;-82
2021/09/26 01:33:28;;;;;;;5.30;4.33;;;;;;;14.54;83.36;96898.91;1707800;82;20971;-82
2021/09/26 01:36:04;;;;;;;5.05;4.20;;;;;;;14.50;83.52;96893.27;1773772;78;21000;-81
2021/09/26 01:38:44;;;;;;;4.40;3.52;;;;;;;14.49;83.56;96895.58;1800641;78;20994;-81
2021/09/26 01:41:16;;;;;;;7.40;4.67;;;;;;;14.50;83.54;96896.38;1808510;79;21343;-82
2021/09/26 01:43:42;;;;;;;6.83;4.22;;;;;;;14.47;83.62;96898.05;1806021;78;20920;-81
2021/09/26 01:46:11;;;;;;;4.80;4.10;;;;;;;14.44;83.69;96895.33;1801138;78;20959;-82
2021/09/26 01:48:42;;;;;;;5.25;4.20;;;;;;;14.42;83.58;96896.80;1797298;79;20939;-82
2021/09/26 01:51:08;;;;;;;5.20;4.03;;;;;;;14.41;83.53;96896.99;1792612;78;20953;-82
2021/09/26 01:53:34;;;;;;;6.53;3.98;;;;;;;14.39;83.63;96905.03;1815022;77;21439;-82
2021/09/26 01:56:00;;;;;;;5.58;3.80;;;;;;;14.37;83.70;96904.42;1791953;79;20978;-82
2021/09/26 01:58:25;;;;;;;4.30;3.50;;;;;;;14.36;83.64;96911.95;1787554;78;21015;-82
2021/09/26 02:00:51;;;;;;;4.55;4.15;;;;;;;14.36;83.69;96918.99;1781186;80;20923;-81
2021/09/26 02:03:20;;;;;;;5.72;4.05;;;;;;;14.34;83.56;96923.61;1777566;80;20903;-82
2021/09/26 02:05:45;;;;;;;4.47;4.03;;;;;;;14.30;83.73;96919.23;1791187;79;21018;-82
2021/09/26 02:08:11;;;;;;;4.17;3.77;;;;;;;14.22;83.80;96920.71;1771224;80;21458;-81
2021/09/26 02:10:38;;;;;;;6.33;4.10;;;;;;;14.17;83.94;96920.48;1765113;80;20978;-82
2021/09/26 02:13:06;;;;;;;4.58;3.95;;;;;;;14.12;83.98;96922.34;1768832;80;20938;-81
2021/09/26 02:15:32;;;;;;;4.55;3.62;;;;;;;14.10;84.06;96915.70;1787907;79;20934;-82
2021/09/26 02:17:58;;;;;;;5.78;4.15;;;;;;;14.07;84.11;96913.47;1750140;79;20924;-82
2021/09/26 02:20:24;;;;;;;6.03;4.10;;;;;;;14.06;84.19;96913.16;1729111;79;21355;-81
2021/09/26 02:22:49;;;;;;;4.30;3.90;;;;;;;14.07;84.24;96911.66;1789284;79;20974;-82
2021/09/26 02:25:17;;;;;;;5.75;4.30;;;;;;;14.09;84.29;96912.78;1777256;79;20951;-82
2021/09/26 02:27:43;;;;;;;6.58;4.33;;;;;;;14.09;84.42;96917.50;1784801;80;21076;-82
2021/09/26 02:30:11;;;;;;;6.58;4.42;;;;;;;14.05;84.67;96923.30;1783064;80;21061;-81
2021/09/26 02:32:37;;;;;;;6.15;4.42;;;;;;;14.03;84.85;96921.39;1805113;79;20934;-81
2021/09/26 02:35:04;;;;;;;5.42;4.42;;;;;;;14.03;84.97;96926.61;1746969;80;20958;-82
2021/09/26 02:37:30;;;;;;;4.87;3.75;;;;;;;14.02;85.24;96925.80;1787684;79;20991;-82
2021/09/26 02:39:57;;;;;;;7.12;4.83;;;;;;;14.02;85.34;96921.08;1788084;80;21282;-82
2021/09/26 02:43:05;;;;;;;5.90;4.03;;;;;;;14.03;85.40;96918.77;1780432;79;20903;-82
2021/09/26 02:45:48;;;;;;;4.92;4.17;;;;;;;14.03;85.41;96918.77;1792138;79;20947;-81
2021/09/26 02:48:23;;;;;;;5.50;4.00;;;;;;;14.00;85.33;96917.35;1787291;80;20947;-82
2021/09/26 02:50:51;;;;;;;9.35;4.58;;;;;;;14.01;85.35;96917.66;1759805;80;21651;-81
2021/09/26 02:53:17;;;;;;;5.70;5.00;;;;;;;14.01;85.36;96926.00;1763290;80;20939;-82
2021/09/26 02:55:44;;;;;;;6.60;4.83;;;;;;;13.98;85.50;96921.93;1766231;80;21008;-81
2021/09/26 02:58:10;;;;;;;5.08;4.05;;;;;;;13.95;85.46;96926.23;1765623;80;21004;-81
2021/09/26 03:00:38;;;;;;;6.35;4.08;;;;;;;13.95;85.48;96930.66;1763913;81;21369;-81
2021/09/26 03:03:06;;;;;;;6.10;3.85;;;;;;;13.92;85.47;96929.23;1765050;80;21364;-82
2021/09/26 03:05:32;;;;;;;6.70;4.50;;;;;;;13.91;85.43;96925.00;1754841;80;20992;-81
2021/09/26 03:07:58;;;;;;;4.30;3.90;;;;;;;13.90;85.44;96923.89;1765374;81;20936;-81
2021/09/26 03:10:24;;;;;;;4.47;4.08;;;;;;;13.89;85.46;96923.59;1777452;80;21999;-81
2021/09/26 03:12:49;;;;;;;5.15;4.20;;;;;;;13.87;85.50;96920.36;1757124;81;21030;-81
2021/09/26 03:15:15;;;;;;;10.90;4.78;;;;;;;13.82;85.59;96930.05;1764125;81;20952;-81
2021/09/26 03:17:41;;;;;;;4.33;3.92;;;;;;;13.78;85.70;96927.50;1764007;80;21343;-82
2021/09/26 03:20:08;;;;;;;4.47;3.87;;;;;;;13.75;85.69;96929.19;1775254;80;21018;-81
2021/09/26 03:22:33;;;;;;;5.75;4.22;;;;;;;13.73;85.72;96924.16;1757400;81;21334;-82
2021/09/26 03:24:59;;;;;;;5.17;4.53;;;;;;;13.74;85.57;96926.27;1758838;80;20991;-81
2021/09/26 03:27:25;;;;;;;5.15;3.90;;;;;;;13.74;85.72;96931.50;1765825;80;21023;-82
2021/09/26 03:29:51;;;;;;;5.37;4.40;;;;;;;13.75;85.76;96931.30;1764543;81;21384;-82
2021/09/26 03:32:18;;;;;;;5.95;4.80;;;;;;;13.79;85.72;96931.23;1756044;81;21433;-82
2021/09/26 03:34:43;;;;;;;6.28;4.70;;;;;;;13.77;85.73;96931.92;1774149;80;20916;-81
2021/09/26 03:37:09;;;;;;;4.83;4.33;;;;;;;13.75;85.84;96929.19;1768525;81;20923;-82
2021/09/26 03:39:36;;;;;;;4.90;3.85;;;;;;;13.73;85.89;96931.19;1770308;80;21359;-81
2021/09/26 03:42:03;;;;;;;6.85;4.15;;;;;;;13.70;85.80;96933.68;1768689;81;20969;-82
2021/09/26 03:44:28;;;;;;;6.12;4.22;;;;;;;13.67;85.86;96933.25;1767834;81;20952;-82
2021/09/26 03:46:54;;;;;;;5.40;3.87;;;;;;;13.65;85.87;96933.41;1748282;81;20928;-82
2021/09/26 03:49:20;;;;;;;6.10;4.05;;;;;;;13.64;85.97;96934.91;1752851;81;20909;-81
2021/09/26 03:51:48;;;;;;;5.12;4.62;;;;;;;13.65;86.00;96932.61;1758428;81;21465;-81
2021/09/26 03:54:16;;;;;;;4.35;3.92;;;;;;;13.68;85.96;96934.87;1757862;81;21415;-82
2021/09/26 03:56:42;;;;;;;5.20;4.22;;;;;;;13.65;86.02;96937.33;1755060;81;20932;-82
2021/09/26 03:59:07;;;;;;;6.12;4.35;;;;;;;13.61;86.02;96929.56;1769781;80;20948;-82
2021/09/26 04:01:33;;;;;;;6.20;4.47;;;;;;;13.58;86.08;96932.56;1768616;80;20976;-82
2021/09/26 04:03:59;;;;;;;4.35;3.95;;;;;;;13.58;86.22;96932.56;1756038;81;20971;-81
2021/09/26 04:06:24;;;;;;;5.20;3.92;;;;;;;13.57;86.11;96931.44;1774158;81;20893;-82
2021/09/26 04:08:50;;;;;;;4.47;4.08;;;;;;;13.56;86.19;96931.94;1770433;81;20951;-81
2021/09/26 04:11:16;;;;;;;5.30;4.60;;;;;;;13.56;86.10;96938.47;1761009;81;21003;-81
2021/09/26 04:13:42;;;;;;;4.42;4.03;;;;;;;13.56;86.14;96938.47;1750096;81;20997;-81
2021/09/26 04:16:08;;;;;;;5.97;4.50;;;;;;;13.56;86.09;96932.44;1769572;81;21371;-82
2021/09/26 04:18:34;;;;;;;4.87;4.25;;;;;;;13.53;86.39;96931.02;1757138;81;21525;-82
2021/09/26 04:21:00;;;;;;;4.83;3.90;;;;;;;13.49;86.48;96938.38;1756045;81;20960;-81
2021/09/26 04:23:26;;;;;;;4.55;4.10;;;;;;;13.47;86.54;96943.48;1762685;81;20963;-81
2021/09/26 04:25:52;;;;;;;10.43;4.70;;;;;;;13.45;86.42;96941.06;1749925;81;20992;-81
2021/09/26 04:28:18;;;;;;;5.15;3.87;;;;;;;13.47;86.38;96940.88;1770612;81;21094;-82
2021/09/26 04:30:43;;;;;;;5.22;4.37;;;;;;;13.48;86.51;96945.10;1754069;81;21311;-82
2021/09/26 04:33:09;;;;;;;4.92;4.22;;;;;;;13.47;86.71;96945.59;1772884;81;21437;-82
2021/09/26 04:35:35;;;;;;;4.97;4.20;;;;;;;13.47;86.74;96948.70;1758713;81;21022;-82
2021/09/26 04:38:01;;;;;;;4.45;4.05;;;;;;;13.43;86.81;96947.47;1750751;81;20988;-82
2021/09/26 04:40:26;;;;;;;7.78;3.65;;;;;;;13.42;86.85;96945.36;1752521;81;21343;-81
2021/09/26 04:42:52;;;;;;;6.25;3.65;;;;;;;13.43;86.85;96944.86;1750209;81;20966;-81
2021/09/26 04:45:18;;;;;;;5.28;4.58;;;;;;;13.45;86.76;96950.70;1770476;81;20960;-81
2021/09/26 04:47:44;;;;;;;6.60;3.87;;;;;;;13.46;86.90;96947.90;1771184;80;21346;-81
2021/09/26 04:50:10;;;;;;;4.37;3.75;;;;;;;13.47;86.84;96952.13;1756857;80;20987;-82
2021/09/26 04:52:36;;;;;;;4.78;4.20;;;;;;;13.48;86.86;96946.41;1758931;81;20950;-81
2021/09/26 04:55:03;;;;;;;5.12;4.40;;;;;;;13.48;86.93;96947.71;1766665;80;21308;-81
2021/09/26 04:57:29;;;;;;;5.67;3.90;;;;;;;13.50;86.87;96948.33;1774346;81;20986;-81
2021/09/26 04:59:56;;;;;;;5.10;4.00;;;;;;;13.51;86.65;96950.78;1769094;81;21027;-82
2021/09/26 05:02:21;;;;;;;6.65;4.70;;;;;;;13.52;86.59;96950.28;1760598;81;21327;-81
2021/09/26 05:04:47;;;;;;;5.30;4.33;;;;;;;13.53;86.63;96949.78;1753349;80;20966;-81
2021/09/26 05:07:13;;;;;;;4.85;4.35;;;;;;;13.54;86.56;96952.21;1763934;81;21319;-81
2021/09/26 05:09:39;;;;;;;6.65;4.45;;;;;;;13.58;86.63;96952.14;1767036;81;20992;-82
2021/09/26 05:12:06;;;;;;;6.00;4.90;;;;;;;13.61;86.80;96950.45;1772167;81;21279;-81
2021/09/26 05:14:32;;;;;;;5.58;4.00;;;;;;;13.58;86.92;96948.23;1771030;81;21335;-81
2021/09/26 05:16:58;;;;;;;4.30;3.50;;;;;;;13.56;86.93;96949.41;1754248;81;20932;-81
2021/09/26 05:19:24;;;;;;;7.83;4.25;;;;;;;13.54;86.89;96948.79;1751020;81;21002;-81
2021/09/26 05:21:49;;;;;;;5.03;3.90;;;;;;;13.53;87.05;96949.29;1752763;81;20984;-81
2021/09/26 05:24:15;;;;;;;6.08;3.92;;;;;;;13.53;87.12;96949.29;1754430;81;21303;-82
2021/09/26 05:26:41;;;;;;;4.30;3.90;;;;;;;13.54;87.28;96947.48;1762127;81;20980;-81
2021/09/26 05:29:06;;;;;;;5.20;3.95;;;;;;;13.55;87.36;96950.41;1766374;81;21072;-81
2021/09/26 05:31:33;;;;;;;6.45;4.53;;;;;;;13.55;87.42;96952.52;1753021;81;21363;-81
2021/09/26 05:34:00;;;;;;;4.78;4.28;;;;;;;13.57;87.44;96955.75;1775370;80;20936;-82
2021/09/26 05:36:26;;;;;;;7.15;4.40;;;;;;;13.58;87.40;96956.55;1769416;81;21311;-82
2021/09/26 05:38:53;;;;;;;4.83;4.22;;;;;;;13.60;87.59;96965.00;1767469;80;20968;-81
2021/09/26 05:41:18;;;;;;;5.10;3.98;;;;;;;13.61;87.57;96960.91;1796784;80;20995;-82
2021/09/26 05:43:44;;;;;;;5.83;3.98;;;;;;;13.61;87.67;96960.91;1791654;78;21304;-81
2021/09/26 05:46:10;;;;;;;5.30;4.03;;;;;;;13.63;87.66;96964.12;1779465;78;20933;-82
2021/09/26 05:48:36;;;;;;;4.87;3.80;;;;;;;13.65;87.82;96962.14;1790233;78;20933;-81
2021/09/26 05:51:01;;;;;;;5.20;3.90;;;;;;;13.67;87.93;96960.67;1794746;78;20960;-81
2021/09/26 05:53:27;;;;;;;5.22;3.75;;;;;;;13.69;87.99;96962.09;1796578;78;21321;-82
2021/09/26 05:55:53;;;;;;;4.97;3.98;;;;;;;13.73;88.11;96953.39;1794681;78;21463;-82
2021/09/26 05:58:20;;;;;;;5.72;4.22;;;;;;;13.79;88.14;96960.46;1786679;79;21079;-83
2021/09/26 06:00:46;;;;;;;5.37;3.95;;;;;;;13.84;88.16;96961.23;1828991;78;20979;-82
2021/09/26 06:03:13;;;;;;;4.55;4.00;;;;;;;13.86;88.22;96958.73;1801646;79;21317;-82
2021/09/26 06:05:41;;;;;;;5.22;3.85;;;;;;;13.88;88.33;96960.66;1790081;78;21322;-82
2021/09/26 06:08:06;;;;;;;6.45;4.45;;;;;;;13.93;88.29;96960.89;1786510;79;21261;-81
2021/09/26 06:10:33;;;;;;;4.37;3.83;;;;;;;13.97;88.31;96969.95;1802938;77;21361;-81
2021/09/26 06:12:59;;;;;;;4.67;3.95;;;;;;;14.02;88.33;96964.19;1786034;78;20974;-81
2021/09/26 06:15:25;;;;;;;4.90;3.52;;;;;;;14.09;88.38;96969.77;1798940;79;20904;-81
2021/09/26 06:17:51;;;;;;;4.90;4.03;;;;;;;14.15;88.32;96967.37;1794001;77;20923;-81
2021/09/26 06:20:18;;;;;;;5.15;4.37;;;;;;;14.17;88.32;96960.99;1801138;79;21021;-82
2021/09/26 06:22:43;;;;;;;5.90;4.25;;;;;;;14.17;88.39;96963.61;1762303;80;21422;-81
2021/09/26 06:25:10;;;;;;;5.08;3.85;;;;;;;14.20;88.46;96965.84;1780159;80;20931;-81
2021/09/26 06:27:36;;;;;;;4.58;4.00;;;;;;;14.24;88.46;96964.95;1763648;80;21321;-81
2021/09/26 06:30:03;;;;;;;5.08;4.10;;;;;;;14.28;88.46;96964.37;1767184;80;20982;-81
2021/09/26 06:32:31;;;;;;;4.08;3.67;;;;;;;14.34;88.32;96969.36;1783542;78;21072;-82
2021/09/26 06:34:59;;;;;;;5.78;3.70;;;;;;;14.40;88.43;96965.97;1793865;78;21033;-82
2021/09/26 06:37:25;;;;;;;6.45;3.83;;;;;;;14.48;88.22;96968.95;1777731;78;20976;-82
2021/09/26 06:39:50;;;;;;;4.30;3.90;;;;;;;14.57;88.07;96979.58;1780250;78;20918;-82
2021/09/26 06:42:17;;;;;;;6.05;4.28;;;;;;;14.63;87.95;96977.49;1803180;79;20917;-82
2021/09/26 06:44:42;;;;;;;4.62;4.22;;;;;;;14.67;88.06;96983.98;1825864;77;20978;-82
2021/09/26 06:47:08;;;;;;;7.35;3.80;;;;;;;14.70;87.95;96983.59;1815867;77;20908;-82
2021/09/26 06:49:34;;;;;;;4.55;4.15;;;;;;;14.69;88.04;96980.66;1781952;78;21346;-82
2021/09/26 06:51:59;;;;;;;4.65;3.90;;;;;;;14.68;87.96;96982.97;1835259;77;20923;-82
2021/09/26 06:54:25;;;;;;;4.40;3.85;;;;;;;14.68;87.93;96983.78;1794211;78;20903;-82
2021/09/26 06:56:51;;;;;;;5.03;4.08;;;;;;;14.73;87.95;96988.93;1782182;78;21341;-82
2021/09/26 06:59:17;;;;;;;5.83;3.98;;;;;;;14.79;87.96;96993.38;1805160;78;21049;-82
2021/09/26 07:01:43;;;;;;;4.25;3.85;;;;;;;14.85;88.00;96990.81;1792026;78;20929;-82
2021/09/26 07:04:09;;;;;;;5.10;4.60;;;;;;;14.92;88.03;96987.72;1812237;78;20999;-82
2021/09/26 07:06:35;;;;;;;6.62;4.90;;;;;;;14.97;87.87;96982.73;1787129;77;20927;-82
2021/09/26 07:09:01;;;;;;;7.62;4.30;;;;;;;14.98;87.78;96988.77;1786542;79;20923;-82
2021/09/26 07:11:26;;;;;;;4.83;4.42;;;;;;;14.99;87.74;96992.50;1791536;79;20935;-82
2021/09/26 07:13:52;;;;;;;6.05;4.70;;;;;;;15.01;87.80;96997.03;1796218;78;20958;-82
2021/09/26 07:16:18;;;;;;;6.20;4.70;;;;;;;15.05;87.83;96999.26;1787028;78;22323;-81
2021/09/26 07:18:44;;;;;;;5.60;4.70;;;;;;;15.08;87.79;96999.67;1799370;78;20970;-83
2021/09/26 07:21:13;;;;;;;5.05;4.40;;;;;;;15.12;87.79;97001.39;1799428;79;21027;-81
2021/09/26 07:23:38;;;;;;;6.03;4.40;;;;;;;15.16;87.86;97002.64;1797087;79;20979;-82
2021/09/26 07:26:03;;;;;;;5.60;4.67;;;;;;;15.19;87.67;97006.17;1762062;80;21040;-82
2021/09/26 07:28:29;;;;;;;4.55;4.15;;;;;;;15.22;87.77;97001.84;1785552;79;21408;-82
2021/09/26 07:30:55;;;;;;;5.58;4.47;;;;;;;15.30;87.78;97007.73;1765656;79;20918;-82
2021/09/26 07:33:21;;;;;;;5.62;5.10;;;;;;;15.35;87.80;97007.14;1777278;79;20904;-84
2021/09/26 07:35:48;;;;;;;6.75;4.70;;;;;;;15.43;87.90;97009.56;1778359;79;21336;-82
2021/09/26 07:38:14;;;;;;;7.08;4.72;;;;;;;15.48;87.89;97006.38;1781910;79;20978;-83
2021/09/26 07:40:40;;;;;;;4.80;4.33;;;;;;;15.49;87.73;97008.80;1796569;78;20981;-82
2021/09/26 07:43:06;;;;;;;6.37;4.65;;;;;;;15.52;87.73;97007.09;1779780;79;20991;-82
2021/09/26 07:45:34;;;;;;;3.67;3.37;;;;;;;15.56;87.64;97012.23;1793934;79;21443;-82
2021/09/26 07:48:00;;;;;;;4.58;3.50;;;;;;;15.63;87.55;97012.30;1805543;79;21374;-82
2021/09/26 07:50:27;;;;;;;5.62;4.90;;;;;;;15.73;87.66;97014.02;1821784;78;20883;-82
2021/09/26 07:52:53;;;;;;;5.30;4.78;;;;;;;15.81;87.39;97015.16;1805091;79;21014;-82
2021/09/26 07:55:19;;;;;;;7.25;5.65;;;;;;;15.90;87.34;97015.25;1819824;79;21343;-82
2021/09/26 07:57:45;;;;;;;5.45;4.95;;;;;;;15.96;87.25;97018.10;1802731;79;20959;-81
2021/09/26 08:00:13;;;;;;;5.08;4.58;;;;;;;15.98;87.09;97016.09;1765290;78;21123;-82
2021/09/26 08:02:39;;;;;;;4.87;4.10;;;;;;;16.01;86.97;97016.99;1760022;81;20953;-82
2021/09/26 08:05:06;;;;;;;4.83;4.10;;;;;;;16.04;86.90;97011.34;1754167;80;21386;-82
2021/09/26 08:07:33;;;;;;;6.75;4.25;;;;;;;16.08;86.79;97013.35;1780349;78;20959;-82
2021/09/26 08:09:59;;;;;;;6.08;5.45;;;;;;;16.16;86.90;97021.55;1746025;81;21337;-82
2021/09/26 08:12:25;;;;;;;5.87;5.10;;;;;;;16.19;86.91;97018.01;1744270;82;20982;-82
2021/09/26 08:14:51;;;;;;;12.98;10.75;;;;;;;16.27;86.91;97022.27;1765877;80;20944;-82
2021/09/26 08:17:17;;;;;;;11.08;8.85;;;;;;;16.34;87.14;97019.63;1773574;80;21271;-82
2021/09/26 08:19:43;;;;;;;8.15;6.87;;;;;;;16.40;86.91;97027.48;1785709;80;21020;-82
2021/09/26 08:22:09;;;;;;;11.22;8.15;;;;;;;16.47;86.91;97027.50;1788080;80;20999;-82
2021/09/26 08:24:35;;;;;;;13.40;12.05;;;;;;;16.53;86.85;97026.67;1774481;80;21003;-82
2021/09/26 08:27:01;;;;;;;9.30;7.33;;;;;;;16.65;86.76;97022.43;1767723;80;20983;-82
2021/09/26 08:29:27;;;;;;;8.85;7.95;;;;;;;16.71;86.49;97016.89;1764086;80;21055;-82
2021/09/26 08:31:54;;;;;;;10.95;9.63;;;;;;;16.77;86.63;97019.52;1772604;80;21322;-82
2021/09/26 08:34:20;;;;;;;11.00;9.90;;;;;;;16.82;86.40;97016.27;1751907;81;21087;-82
2021/09/26 08:36:45;;;;;;;12.60;11.20;;;;;;;16.89;86.73;97020.19;1762264;81;21107;-82
2021/09/26 08:39:11;;;;;;;11.10;9.85;;;;;;;17.01;86.89;97014.61;1758441;79;20995;-82
2021/09/26 08:41:37;;;;;;;12.37;11.08;;;;;;;17.11;86.78;97020.23;1749203;81;20965;-83
2021/09/26 08:44:04;;;;;;;12.37;10.85;;;;;;;17.16;86.57;97025.66;1742809;81;22198;-83
2021/09/26 08:46:30;;;;;;;13.40;10.23;;;;;;;17.25;86.11;97019.69;1743574;80;20998;-83
2021/09/26 08:48:57;;;;;;;11.80;10.48;;;;;;;17.27;86.24;97023.72;1757829;81;21089;-83
2021/09/26 08:51:23;;;;;;;11.78;10.58;;;;;;;17.27;86.23;97018.97;1759254;79;20958;-83
2021/09/26 08:53:49;;;;;;;9.15;8.13;;;;;;;17.31;86.44;97024.10;1755610;81;20927;-83
2021/09/26 08:56:17;;;;;;;12.47;10.85;;;;;;;17.36;86.22;97019.83;1756519;79;21310;-83
2021/09/26 08:58:43;;;;;;;11.25;9.10;;;;;;;17.48;86.73;97020.49;1749307;79;21404;-83
2021/09/26 09:01:09;;;;;;;10.53;9.48;;;;;;;17.55;86.14;97028.63;1763570;81;21003;-83
2021/09/26 09:03:35;;;;;;;10.68;9.58;;;;;;;17.61;85.61;97030.94;1794106;80;21224;-83
2021/09/26 09:06:00;;;;;;;11.53;9.75;;;;;;;17.74;86.05;97030.91;1791021;80;21366;-83
2021/09/26 09:08:26;;;;;;;9.30;7.92;;;;;;;17.82;84.76;97022.76;1801493;79;20920;-83
2021/09/26 09:11:00;;;;;;;8.93;8.03;;;;;;;17.90;82.62;97020.41;1797396;79;20975;-83
2021/09/26 09:13:35;;;;;;;9.78;8.20;;;;;;;17.99;83.75;97017.29;1783045;80;20978;-83
2021/09/26 09:16:16;;;;;;;11.20;8.20;;;;;;;18.09;84.04;97021.28;1793169;79;20990;-83
2021/09/26 09:18:51;;;;;;;10.00;8.98;;;;;;;18.12;82.72;97021.66;1774908;81;21014;-83
2021/09/26 09:21:22;;;;;;;9.83;8.83;;;;;;;18.16;83.78;97017.57;1788387;79;21014;-83
2021/09/26 09:23:50;;;;;;;11.35;9.45;;;;;;;18.24;84.23;97019.15;1788437;79;21416;-83
2021/09/26 09:26:33;;;;;;;10.18;8.50;;;;;;;18.26;83.21;97011.84;1785676;79;21014;-83
2021/09/26 09:28:59;;;;;;;9.95;8.05;;;;;;;18.32;83.82;97014.92;1790127;79;21021;-84
2021/09/26 09:31:25;;;;;;;9.75;7.60;;;;;;;18.37;83.85;97011.64;1797512;78;21443;-83
2021/09/26 09:33:51;;;;;;;10.65;7.28;;;;;;;18.42;83.73;97011.30;1786671;79;21027;-83
2021/09/26 09:36:26;;;;;;;9.35;8.23;;;;;;;18.44;83.60;97008.45;1796748;78;21004;-84
2021/09/26 09:38:55;;;;;;;9.20;8.18;;;;;;;18.50;83.09;97014.16;1791790;79;20912;-83
2021/09/26 09:41:42;;;;;;;8.55;7.72;;;;;;;18.57;83.00;97012.29;1790573;79;20966;-83
2021/09/26 09:44:10;;;;;;;9.20;8.23;;;;;;;18.59;83.38;97011.56;1795506;79;20978;-83
2021/09/26 09:46:46;;;;;;;9.43;8.48;;;;;;;18.66;83.43;97012.83;1782566;79;20963;-83
2021/09/26 09:49:17;;;;;;;10.45;8.43;;;;;;;18.69;82.42;97019.78;1785006;79;20979;-83
2021/09/26 09:51:51;;;;;;;;;;;;;;;18.76;81.64;97013.95;1805738;78;21402;-83
2021/09/26 09:54:33;;;;;;;8.70;7.80;;;;;;;18.88;80.60;97017.48;1800734;79;20140;-83
2021/09/26 09:57:15;;;;;;;10.98;8.65;;;;;;;18.98;80.31;97009.57;1788440;79;21054;-83
2021/09/26 09:59:41;;;;;;;10.30;8.20;;;;;;;19.05;81.33;97010.32;1771434;79;21102;-83
2021/09/26 10:02:07;;;;;;;9.20;8.28;;;;;;;19.06;80.84;97009.30;1787002;79;20943;-83
2021/09/26 10:04:39;;;;;;;9.13;7.42;;;;;;;19.12;81.98;97006.57;1792681;78;20971;-83
2021/09/26 10:07:26;;;;;;;10.25;8.23;;;;;;;19.18;81.77;97004.87;1780849;79;20978;-83
2021/09/26 10:09:52;;;;;;;8.65;7.85;;;;;;;19.26;81.72;96998.52;1803763;79;20949;-83
2021/09/26 10:12:30;;;;;;;9.30;8.30;;;;;;;19.32;81.55;97000.26;1804244;79;20927;-83
2021/09/26 10:14:59;;;;;;;8.00;7.15;;;;;;;19.33;81.56;96996.59;1772433;79;21021;-83
2021/09/26 10:17:26;;;;;;;7.95;7.17;;;;;;;19.33;81.35;96996.08;1773069;79;20969;-83
2021/09/26 10:19:52;;;;;;;8.15;7.40;;;;;;;19.38;80.64;96990.97;1773454;79;21310;-83
2021/09/26 10:22:18;;;;;;;8.20;7.40;;;;;;;19.41;80.44;96994.47;1772618;79;21002;-83
2021/09/26 10:24:49;;;;;;;8.48;7.42;;;;;;;19.45;80.16;97003.53;1780893;79;21038;-83
2021/09/26 10:27:20;;;;;;;8.78;7.75;;;;;;;19.48;79.04;96999.64;1787936;79;20987;-84
2021/09/26 10:29:43;;;;;;;8.18;7.33;;;;;;;19.50;80.30;97001.03;1773573;79;21066;-84
2021/09/26 10:32:09;;;;;;;9.83;7.42;;;;;;;19.56;80.01;97002.53;1802884;79;20943;-83
2021/09/26 10:34:36;;;;;;;7.95;6.90;;;;;;;19.59;80.34;96998.93;1789504;79;21354;-83
2021/09/26 10:37:04;;;;;;;7.30;6.42;;;;;;;19.63;80.15;97002.72;1793870;79;21052;-83
2021/09/26 10:39:30;;;;;;;7.97;7.28;;;;;;;19.72;79.95;97006.66;1782009;79;20940;-84
2021/09/26 10:42:14;;;;;;;8.95;6.83;;;;;;;19.77;77.52;97011.26;1786476;79;20991;-84
2021/09/26 10:44:54;;;;;;;7.80;6.97;;;;;;;19.81;79.54;97015.05;1796846;79;21331;-83
2021/09/26 10:47:23;;;;;;;7.33;6.62;;;;;;;19.84;78.99;97013.79;1773481;79;21019;-84
2021/09/26 10:50:04;;;;;;;7.85;6.47;;;;;;;19.85;78.56;97010.12;1798737;79;21055;-83
2021/09/26 10:52:36;;;;;;;7.37;6.53;;;;;;;19.83;78.89;97005.59;1803962;79;20972;-83
2021/09/26 10:55:23;;;;;;;6.97;6.30;;;;;;;19.82;78.99;97007.42;1800583;79;21020;-83
2021/09/26 10:58:09;;;;;;;8.13;6.75;;;;;;;19.89;79.19;97001.55;1773298;79;20959;-83
2021/09/26 11:00:44;;;;;;;8.88;6.80;;;;;;;19.98;78.66;97000.70;1804197;78;21076;-83
2021/09/26 11:03:16;;;;;;;9.15;6.40;;;;;;;20.06;78.08;97003.83;1784753;79;20984;-83
2021/09/26 11:05:50;;;;;;;7.25;6.33;;;;;;;20.08;78.16;96996.49;1779785;79;20951;-84
2021/09/26 11:08:30;;;;;;;7.05;6.25;;;;;;;20.13;78.31;96998.44;1774236;80;20924;-84
2021/09/26 11:11:00;;;;;;;7.97;6.85;;;;;;;20.24;76.95;96996.34;1770672;79;21353;-84
2021/09/26 11:13:35;;;;;;;7.25;6.37;;;;;;;20.25;77.27;96990.03;1784843;78;20968;-83
2021/09/26 11:16:18;;;;;;;6.85;6.03;;;;;;;20.30;76.97;96984.87;1772138;80;20976;-83
2021/09/26 11:18:48;;;;;;;7.62;6.62;;;;;;;20.41;77.15;96981.98;1784948;78;20971;-84
2021/09/26 11:21:44;;;;;;;7.58;6.10;;;;;;;20.38;75.75;96985.06;1797904;78;21014;-84
2021/09/26 11:24:18;;;;;;;7.78;7.08;;;;;;;20.44;76.73;96984.68;1774640;79;21016;-83
2021/09/26 11:27:15;;;;;;;7.80;6.08;;;;;;;20.52;75.40;96983.03;1776300;78;20978;-83
2021/09/26 11:29:50;;;;;;;7.50;6.25;;;;;;;20.54;76.37;96982.28;1776159;78;21054;-83
2021/09/26 11:32:27;;;;;;;6.75;6.03;;;;;;;20.37;75.24;96984.77;1776764;79;20961;-84
2021/09/26 11:34:59;;;;;;;6.20;5.62;;;;;;;20.31;76.63;96985.16;1795741;79;20942;-83
2021/09/26 11:37:42;;;;;;;6.35;5.75;;;;;;;20.25;76.48;96983.95;1805883;79;21298;-83
2021/09/26 11:40:16;;;;;;;7.35;6.60;;;;;;;20.16;77.25;96977.39;1806188;79;21052;-83